sensor_id;sensor_type;location;lat;lon;timestamp;pressure;altitude;pressure_sealevel;temperature
24639;BMP180;1641;51.306;12.384;2023-06-14T00:00:43;100175.00;;;15.90
24639;BMP180;1641;51.306;12.384;2023-06-14T00:03:10;100175.00;;;15.60
24639;BMP180;1641;51.306;12.384;2023-06-14T00:05:36;100182.00;;;15.70
24639;BMP180;1641;51.306;12.384;2023-06-14T00:08:08;100187.00;;;15.50
24639;BMP180;1641;51.306;12.384;2023-06-14T00:10:34;100186.00;;;15.60
24639;BMP180;1641;51.306;12.384;2023-06-14T00:13:04;100174.00;;;15.50
24639;BMP180;1641;51.306;12.384;2023-06-14T00:15:32;100179.00;;;15.50
24639;BMP180;1641;51.306;12.384;2023-06-14T00:17:58;100185.00;;;15.40
24639;BMP180;1641;51.306;12.384;2023-06-14T00:20:30;100185.00;;;15.20
24639;BMP180;1641;51.306;12.384;2023-06-14T00:23:01;100190.00;;;15.30
24639;BMP180;1641;51.306;12.384;2023-06-14T00:25:26;100192.00;;;15.40
24639;BMP180;1641;51.306;12.384;2023-06-14T00:27:52;100186.00;;;15.00
24639;BMP180;1641;51.306;12.384;2023-06-14T00:30:18;100185.00;;;14.80
24639;BMP180;1641;51.306;12.384;2023-06-14T00:32:44;100180.00;;;14.70
24639;BMP180;1641;51.306;12.384;2023-06-14T00:35:09;100182.00;;;14.90
24639;BMP180;1641;51.306;12.384;2023-06-14T00:37:35;100179.00;;;15.00
24639;BMP180;1641;51.306;12.384;2023-06-14T00:40:00;100181.00;;;15.20
24639;BMP180;1641;51.306;12.384;2023-06-14T00:42:26;100175.00;;;15.30
24639;BMP180;1641;51.306;12.384;2023-06-14T00:44:52;100179.00;;;15.30
24639;BMP180;1641;51.306;12.384;2023-06-14T00:47:17;100171.00;;;15.10
24639;BMP180;1641;51.306;12.384;2023-06-14T00:49:45;100180.00;;;15.20
24639;BMP180;1641;51.306;12.384;2023-06-14T00:52:10;100173.00;;;15.00
24639;BMP180;1641;51.306;12.384;2023-06-14T00:54:39;100183.00;;;15.20
24639;BMP180;1641;51.306;12.384;2023-06-14T00:57:04;100176.00;;;15.10
24639;BMP180;1641;51.306;12.384;2023-06-14T00:59:31;100180.00;;;15.10
24639;BMP180;1641;51.306;12.384;2023-06-14T01:01:56;100177.00;;;15.00
24639;BMP180;1641;51.306;12.384;2023-06-14T01:04:21;100172.00;;;14.80
24639;BMP180;1641;51.306;12.384;2023-06-14T01:07:07;100176.00;;;15.00
24639;BMP180;1641;51.306;12.384;2023-06-14T01:15:40;100171.00;;;14.80
24639;BMP180;1641;51.306;12.384;2023-06-14T01:18:07;100179.00;;;14.70
24639;BMP180;1641;51.306;12.384;2023-06-14T01:20:33;100181.00;;;14.80
24639;BMP180;1641;51.306;12.384;2023-06-14T01:23:02;100183.00;;;14.50
24639;BMP180;1641;51.306;12.384;2023-06-14T01:25:28;100185.00;;;14.50
24639;BMP180;1641;51.306;12.384;2023-06-14T01:27:57;100184.00;;;14.00
24639;BMP180;1641;51.306;12.384;2023-06-14T01:30:24;100141.00;;;14.10
24639;BMP180;1641;51.306;12.384;2023-06-14T01:32:51;100177.00;;;14.30
24639;BMP180;1641;51.306;12.384;2023-06-14T01:35:17;100185.00;;;14.30
24639;BMP180;1641;51.306;12.384;2023-06-14T01:37:43;100188.00;;;14.10
24639;BMP180;1641;51.306;12.384;2023-06-14T01:40:10;100171.00;;;14.10
24639;BMP180;1641;51.306;12.384;2023-06-14T01:42:37;100184.00;;;14.20
24639;BMP180;1641;51.306;12.384;2023-06-14T01:45:04;100179.00;;;14.00
24639;BMP180;1641;51.306;12.384;2023-06-14T01:47:31;100179.00;;;13.80
24639;BMP180;1641;51.306;12.384;2023-06-14T01:49:57;100178.00;;;14.10
24639;BMP180;1641;51.306;12.384;2023-06-14T01:52:22;100176.00;;;14.10
24639;BMP180;1641;51.306;12.384;2023-06-14T01:54:50;100177.00;;;14.30
24639;BMP180;1641;51.306;12.384;2023-06-14T01:57:16;100175.00;;;14.50
24639;BMP180;1641;51.306;12.384;2023-06-14T01:59:41;100190.00;;;14.50
24639;BMP180;1641;51.306;12.384;2023-06-14T02:02:09;100190.00;;;14.20
24639;BMP180;1641;51.306;12.384;2023-06-14T02:04:35;100181.00;;;14.20
24639;BMP180;1641;51.306;12.384;2023-06-14T02:07:03;100182.00;;;14.10
24639;BMP180;1641;51.306;12.384;2023-06-14T02:09:28;100178.00;;;14.10
24639;BMP180;1641;51.306;12.384;2023-06-14T02:11:53;100178.00;;;14.10
24639;BMP180;1641;51.306;12.384;2023-06-14T02:14:18;100163.00;;;14.20
24639;BMP180;1641;51.306;12.384;2023-06-14T02:16:46;100178.00;;;14.10
24639;BMP180;1641;51.306;12.384;2023-06-14T02:19:17;100175.00;;;14.40
24639;BMP180;1641;51.306;12.384;2023-06-14T02:21:43;100183.00;;;14.40
24639;BMP180;1641;51.306;12.384;2023-06-14T02:24:12;100188.00;;;14.60
24639;BMP180;1641;51.306;12.384;2023-06-14T02:26:38;100178.00;;;14.60
24639;BMP180;1641;51.306;12.384;2023-06-14T02:29:04;100183.00;;;14.50
24639;BMP180;1641;51.306;12.384;2023-06-14T02:31:30;100188.00;;;14.50
24639;BMP180;1641;51.306;12.384;2023-06-14T02:33:55;100195.00;;;14.10
24639;BMP180;1641;51.306;12.384;2023-06-14T02:36:21;100164.00;;;14.10
24639;BMP180;1641;51.306;12.384;2023-06-14T02:38:46;100168.00;;;14.00
24639;BMP180;1641;51.306;12.384;2023-06-14T02:41:12;100188.00;;;13.70
24639;BMP180;1641;51.306;12.384;2023-06-14T02:43:38;100194.00;;;13.70
24639;BMP180;1641;51.306;12.384;2023-06-14T02:46:03;100199.00;;;13.40
24639;BMP180;1641;51.306;12.384;2023-06-14T02:48:35;100201.00;;;13.40
24639;BMP180;1641;51.306;12.384;2023-06-14T02:51:00;100200.00;;;13.50
24639;BMP180;1641;51.306;12.384;2023-06-14T02:53:25;100206.00;;;13.20
24639;BMP180;1641;51.306;12.384;2023-06-14T02:55:51;100205.00;;;13.30
24639;BMP180;1641;51.306;12.384;2023-06-14T02:58:17;100197.00;;;13.40
24639;BMP180;1641;51.306;12.384;2023-06-14T03:00:43;100202.00;;;13.20
24639;BMP180;1641;51.306;12.384;2023-06-14T03:03:09;100183.00;;;13.40
24639;BMP180;1641;51.306;12.384;2023-06-14T03:05:45;100205.00;;;13.30
24639;BMP180;1641;51.306;12.384;2023-06-14T03:08:15;100203.00;;;13.30
24639;BMP180;1641;51.306;12.384;2023-06-14T03:10:42;100189.00;;;13.60
24639;BMP180;1641;51.306;12.384;2023-06-14T03:13:08;100211.00;;;13.20
24639;BMP180;1641;51.306;12.384;2023-06-14T03:15:33;100208.00;;;13.50
24639;BMP180;1641;51.306;12.384;2023-06-14T03:17:58;100214.00;;;13.30
24639;BMP180;1641;51.306;12.384;2023-06-14T03:20:24;100173.00;;;13.10
24639;BMP180;1641;51.306;12.384;2023-06-14T03:22:53;100217.00;;;13.30
24639;BMP180;1641;51.306;12.384;2023-06-14T03:25:19;100185.00;;;13.30
24639;BMP180;1641;51.306;12.384;2023-06-14T03:27:45;100209.00;;;13.20
24639;BMP180;1641;51.306;12.384;2023-06-14T03:30:11;100218.00;;;13.40
24639;BMP180;1641;51.306;12.384;2023-06-14T03:32:36;100218.00;;;13.70
24639;BMP180;1641;51.306;12.384;2023-06-14T03:35:01;100223.00;;;13.80
24639;BMP180;1641;51.306;12.384;2023-06-14T03:37:27;100214.00;;;14.00
24639;BMP180;1641;51.306;12.384;2023-06-14T03:39:52;100222.00;;;13.50
24639;BMP180;1641;51.306;12.384;2023-06-14T03:42:17;100218.00;;;13.40
24639;BMP180;1641;51.306;12.384;2023-06-14T03:44:43;100217.00;;;13.30
24639;BMP180;1641;51.306;12.384;2023-06-14T03:47:08;100226.00;;;13.60
24639;BMP180;1641;51.306;12.384;2023-06-14T03:49:34;100228.00;;;13.60
24639;BMP180;1641;51.306;12.384;2023-06-14T03:52:00;100228.00;;;13.50
24639;BMP180;1641;51.306;12.384;2023-06-14T03:54:25;100228.00;;;13.70
24639;BMP180;1641;51.306;12.384;2023-06-14T03:56:51;100235.00;;;13.70
24639;BMP180;1641;51.306;12.384;2023-06-14T03:59:16;100236.00;;;13.20
24639;BMP180;1641;51.306;12.384;2023-06-14T04:01:41;100239.00;;;13.20
24639;BMP180;1641;51.306;12.384;2023-06-14T04:04:09;100245.00;;;13.00
24639;BMP180;1641;51.306;12.384;2023-06-14T04:06:35;100248.00;;;13.20
24639;BMP180;1641;51.306;12.384;2023-06-14T04:09:00;100250.00;;;13.40
24639;BMP180;1641;51.306;12.384;2023-06-14T04:11:28;100244.00;;;13.50
24639;BMP180;1641;51.306;12.384;2023-06-14T04:13:53;100242.00;;;13.30
24639;BMP180;1641;51.306;12.384;2023-06-14T04:16:21;100242.00;;;13.40
24639;BMP180;1641;51.306;12.384;2023-06-14T04:18:46;100250.00;;;13.50
24639;BMP180;1641;51.306;12.384;2023-06-14T04:21:13;100249.00;;;13.20
24639;BMP180;1641;51.306;12.384;2023-06-14T04:23:38;100242.00;;;12.90
24639;BMP180;1641;51.306;12.384;2023-06-14T04:26:04;100243.00;;;13.10
24639;BMP180;1641;51.306;12.384;2023-06-14T04:28:29;100244.00;;;13.30
24639;BMP180;1641;51.306;12.384;2023-06-14T04:30:55;100238.00;;;13.20
24639;BMP180;1641;51.306;12.384;2023-06-14T04:33:20;100253.00;;;13.60
24639;BMP180;1641;51.306;12.384;2023-06-14T04:35:45;100263.00;;;13.20
24639;BMP180;1641;51.306;12.384;2023-06-14T04:38:12;100257.00;;;13.20
24639;BMP180;1641;51.306;12.384;2023-06-14T04:40:38;100247.00;;;13.10
24639;BMP180;1641;51.306;12.384;2023-06-14T04:43:08;100258.00;;;13.50
24639;BMP180;1641;51.306;12.384;2023-06-14T04:45:33;100258.00;;;13.50
24639;BMP180;1641;51.306;12.384;2023-06-14T04:47:59;100252.00;;;13.60
24639;BMP180;1641;51.306;12.384;2023-06-14T04:50:24;100202.00;;;13.80
24639;BMP180;1641;51.306;12.384;2023-06-14T04:52:50;100252.00;;;14.30
24639;BMP180;1641;51.306;12.384;2023-06-14T04:55:16;100258.00;;;14.30
24639;BMP180;1641;51.306;12.384;2023-06-14T04:57:41;100251.00;;;14.30
24639;BMP180;1641;51.306;12.384;2023-06-14T05:00:08;100251.00;;;14.30
24639;BMP180;1641;51.306;12.384;2023-06-14T05:02:36;100248.00;;;14.40
24639;BMP180;1641;51.306;12.384;2023-06-14T05:05:03;100250.00;;;14.50
24639;BMP180;1641;51.306;12.384;2023-06-14T05:07:29;100246.00;;;14.80
24639;BMP180;1641;51.306;12.384;2023-06-14T05:09:56;100253.00;;;15.00
24639;BMP180;1641;51.306;12.384;2023-06-14T05:12:21;100257.00;;;15.10
24639;BMP180;1641;51.306;12.384;2023-06-14T05:14:46;100254.00;;;15.20
24639;BMP180;1641;51.306;12.384;2023-06-14T05:17:11;100267.00;;;15.20
24639;BMP180;1641;51.306;12.384;2023-06-14T05:19:37;100205.00;;;15.20
24639;BMP180;1641;51.306;12.384;2023-06-14T05:22:02;100240.00;;;15.60
24639;BMP180;1641;51.306;12.384;2023-06-14T05:24:28;100233.00;;;16.00
24639;BMP180;1641;51.306;12.384;2023-06-14T05:26:56;100254.00;;;16.10
24639;BMP180;1641;51.306;12.384;2023-06-14T05:29:22;100264.00;;;15.90
24639;BMP180;1641;51.306;12.384;2023-06-14T05:31:47;100269.00;;;16.40
24639;BMP180;1641;51.306;12.384;2023-06-14T05:34:12;100276.00;;;17.30
24639;BMP180;1641;51.306;12.384;2023-06-14T05:36:38;100277.00;;;18.70
24639;BMP180;1641;51.306;12.384;2023-06-14T05:39:03;100276.00;;;18.30
24639;BMP180;1641;51.306;12.384;2023-06-14T05:41:29;100274.00;;;19.40
24639;BMP180;1641;51.306;12.384;2023-06-14T05:43:55;100283.00;;;18.50
24639;BMP180;1641;51.306;12.384;2023-06-14T05:46:21;100278.00;;;17.60
24639;BMP180;1641;51.306;12.384;2023-06-14T05:48:53;100289.00;;;17.30
24639;BMP180;1641;51.306;12.384;2023-06-14T05:51:19;100288.00;;;18.40
24639;BMP180;1641;51.306;12.384;2023-06-14T05:53:48;100286.00;;;19.10
24639;BMP180;1641;51.306;12.384;2023-06-14T05:56:14;100287.00;;;19.70
24639;BMP180;1641;51.306;12.384;2023-06-14T05:58:40;100274.00;;;19.10
24639;BMP180;1641;51.306;12.384;2023-06-14T06:01:05;100290.00;;;19.90
24639;BMP180;1641;51.306;12.384;2023-06-14T06:03:31;100297.00;;;20.30
24639;BMP180;1641;51.306;12.384;2023-06-14T06:05:56;100309.00;;;19.10
24639;BMP180;1641;51.306;12.384;2023-06-14T06:08:21;100301.00;;;19.50
24639;BMP180;1641;51.306;12.384;2023-06-14T06:10:47;100304.00;;;20.10
24639;BMP180;1641;51.306;12.384;2023-06-14T06:13:12;100304.00;;;20.90
24639;BMP180;1641;51.306;12.384;2023-06-14T06:15:37;100315.00;;;20.20
24639;BMP180;1641;51.306;12.384;2023-06-14T06:18:02;100271.00;;;19.70
24639;BMP180;1641;51.306;12.384;2023-06-14T06:20:29;100312.00;;;20.60
24639;BMP180;1641;51.306;12.384;2023-06-14T06:22:56;100319.00;;;21.50
24639;BMP180;1641;51.306;12.384;2023-06-14T06:25:21;100325.00;;;20.90
24639;BMP180;1641;51.306;12.384;2023-06-14T06:27:47;100316.00;;;19.90
24639;BMP180;1641;51.306;12.384;2023-06-14T06:30:13;100320.00;;;21.10
24639;BMP180;1641;51.306;12.384;2023-06-14T06:32:38;100334.00;;;21.80
24639;BMP180;1641;51.306;12.384;2023-06-14T06:35:03;100331.00;;;21.80
24639;BMP180;1641;51.306;12.384;2023-06-14T06:37:31;100320.00;;;22.10
24639;BMP180;1641;51.306;12.384;2023-06-14T06:39:56;100335.00;;;21.80
24639;BMP180;1641;51.306;12.384;2023-06-14T06:42:21;100334.00;;;20.90
24639;BMP180;1641;51.306;12.384;2023-06-14T06:44:47;100295.00;;;20.80
24639;BMP180;1641;51.306;12.384;2023-06-14T06:47:12;100334.00;;;21.80
24639;BMP180;1641;51.306;12.384;2023-06-14T06:49:37;100337.00;;;22.20
24639;BMP180;1641;51.306;12.384;2023-06-14T06:52:06;100340.00;;;21.80
24639;BMP180;1641;51.306;12.384;2023-06-14T06:54:32;100340.00;;;22.10
24639;BMP180;1641;51.306;12.384;2023-06-14T06:56:57;100313.00;;;21.60
24639;BMP180;1641;51.306;12.384;2023-06-14T06:59:23;100338.00;;;21.20
24639;BMP180;1641;51.306;12.384;2023-06-14T07:01:48;100338.00;;;21.40
24639;BMP180;1641;51.306;12.384;2023-06-14T07:04:13;100344.00;;;23.10
24639;BMP180;1641;51.306;12.384;2023-06-14T07:06:39;100338.00;;;24.30
24639;BMP180;1641;51.306;12.384;2023-06-14T07:09:04;100335.00;;;24.20
24639;BMP180;1641;51.306;12.384;2023-06-14T07:11:33;100339.00;;;23.50
24639;BMP180;1641;51.306;12.384;2023-06-14T07:13:58;100340.00;;;23.40
24639;BMP180;1641;51.306;12.384;2023-06-14T07:16:23;100344.00;;;23.60
24639;BMP180;1641;51.306;12.384;2023-06-14T07:18:49;100344.00;;;23.30
24639;BMP180;1641;51.306;12.384;2023-06-14T07:21:14;100345.00;;;23.20
24639;BMP180;1641;51.306;12.384;2023-06-14T07:23:39;100338.00;;;23.90
24639;BMP180;1641;51.306;12.384;2023-06-14T07:26:04;100347.00;;;24.90
24639;BMP180;1641;51.306;12.384;2023-06-14T07:28:30;100345.00;;;24.60
24639;BMP180;1641;51.306;12.384;2023-06-14T07:30:55;100358.00;;;23.90
24639;BMP180;1641;51.306;12.384;2023-06-14T07:33:20;100357.00;;;23.90
24639;BMP180;1641;51.306;12.384;2023-06-14T07:35:45;100355.00;;;24.20
24639;BMP180;1641;51.306;12.384;2023-06-14T07:38:11;100367.00;;;23.40
24639;BMP180;1641;51.306;12.384;2023-06-14T07:40:36;100357.00;;;24.10
24639;BMP180;1641;51.306;12.384;2023-06-14T07:43:01;100365.00;;;23.80
24639;BMP180;1641;51.306;12.384;2023-06-14T07:45:27;100335.00;;;23.90
24639;BMP180;1641;51.306;12.384;2023-06-14T07:47:52;100358.00;;;24.00
24639;BMP180;1641;51.306;12.384;2023-06-14T07:50:18;100341.00;;;23.90
24639;BMP180;1641;51.306;12.384;2023-06-14T07:52:43;100353.00;;;24.00
24639;BMP180;1641;51.306;12.384;2023-06-14T07:55:09;100353.00;;;23.80
24639;BMP180;1641;51.306;12.384;2023-06-14T07:57:34;100362.00;;;22.50
24639;BMP180;1641;51.306;12.384;2023-06-14T08:00:00;100359.00;;;24.00
24639;BMP180;1641;51.306;12.384;2023-06-14T08:02:25;100346.00;;;24.60
24639;BMP180;1641;51.306;12.384;2023-06-14T08:04:50;100333.00;;;24.30
24639;BMP180;1641;51.306;12.384;2023-06-14T08:07:16;100362.00;;;24.00
24639;BMP180;1641;51.306;12.384;2023-06-14T08:09:41;100369.00;;;24.50
24639;BMP180;1641;51.306;12.384;2023-06-14T08:12:07;100368.00;;;23.70
24639;BMP180;1641;51.306;12.384;2023-06-14T08:14:34;100353.00;;;24.40
24639;BMP180;1641;51.306;12.384;2023-06-14T08:17:00;100365.00;;;25.20
24639;BMP180;1641;51.306;12.384;2023-06-14T08:19:25;100361.00;;;26.40
24639;BMP180;1641;51.306;12.384;2023-06-14T08:21:50;100367.00;;;25.70
24639;BMP180;1641;51.306;12.384;2023-06-14T08:24:16;100368.00;;;24.90
24639;BMP180;1641;51.306;12.384;2023-06-14T08:26:42;100371.00;;;24.70
24639;BMP180;1641;51.306;12.384;2023-06-14T08:29:07;100368.00;;;25.10
24639;BMP180;1641;51.306;12.384;2023-06-14T08:31:33;100362.00;;;26.40
24639;BMP180;1641;51.306;12.384;2023-06-14T08:33:58;100368.00;;;24.30
24639;BMP180;1641;51.306;12.384;2023-06-14T08:36:24;100377.00;;;24.80
24639;BMP180;1641;51.306;12.384;2023-06-14T08:38:49;100370.00;;;26.40
24639;BMP180;1641;51.306;12.384;2023-06-14T08:41:20;100371.00;;;26.20
24639;BMP180;1641;51.306;12.384;2023-06-14T08:43:45;100376.00;;;23.40
24639;BMP180;1641;51.306;12.384;2023-06-14T08:46:11;100378.00;;;22.60
24639;BMP180;1641;51.306;12.384;2023-06-14T08:48:38;100369.00;;;21.90
24639;BMP180;1641;51.306;12.384;2023-06-14T08:51:04;100338.00;;;22.80
24639;BMP180;1641;51.306;12.384;2023-06-14T08:53:30;100362.00;;;24.00
24639;BMP180;1641;51.306;12.384;2023-06-14T08:56:00;100369.00;;;23.20
24639;BMP180;1641;51.306;12.384;2023-06-14T08:58:30;100366.00;;;21.80
24639;BMP180;1641;51.306;12.384;2023-06-14T09:00:57;100363.00;;;22.80
24639;BMP180;1641;51.306;12.384;2023-06-14T09:03:23;100362.00;;;23.20
24639;BMP180;1641;51.306;12.384;2023-06-14T09:05:57;100335.00;;;24.10
24639;BMP180;1641;51.306;12.384;2023-06-14T09:08:29;100381.00;;;22.40
24639;BMP180;1641;51.306;12.384;2023-06-14T09:10:57;100374.00;;;22.60
24639;BMP180;1641;51.306;12.384;2023-06-14T09:13:22;100381.00;;;22.90
24639;BMP180;1641;51.306;12.384;2023-06-14T09:15:48;100381.00;;;23.00
24639;BMP180;1641;51.306;12.384;2023-06-14T09:18:13;100380.00;;;24.60
24639;BMP180;1641;51.306;12.384;2023-06-14T09:20:44;100369.00;;;24.60
24639;BMP180;1641;51.306;12.384;2023-06-14T09:23:12;100374.00;;;24.30
24639;BMP180;1641;51.306;12.384;2023-06-14T09:25:45;100379.00;;;25.00
24639;BMP180;1641;51.306;12.384;2023-06-14T09:28:11;100347.00;;;23.50
24639;BMP180;1641;51.306;12.384;2023-06-14T09:30:37;100374.00;;;25.60
24639;BMP180;1641;51.306;12.384;2023-06-14T09:33:03;100381.00;;;23.30
24639;BMP180;1641;51.306;12.384;2023-06-14T09:35:28;100384.00;;;22.00
24639;BMP180;1641;51.306;12.384;2023-06-14T09:37:56;100378.00;;;23.80
24639;BMP180;1641;51.306;12.384;2023-06-14T09:40:21;100372.00;;;26.30
24639;BMP180;1641;51.306;12.384;2023-06-14T09:42:47;100373.00;;;26.60
24639;BMP180;1641;51.306;12.384;2023-06-14T09:45:15;100369.00;;;26.70
24639;BMP180;1641;51.306;12.384;2023-06-14T09:47:48;100374.00;;;26.80
24639;BMP180;1641;51.306;12.384;2023-06-14T09:50:20;100369.00;;;24.70
24639;BMP180;1641;51.306;12.384;2023-06-14T09:52:46;100369.00;;;26.10
24639;BMP180;1641;51.306;12.384;2023-06-14T09:55:18;100375.00;;;26.30
24639;BMP180;1641;51.306;12.384;2023-06-14T09:57:45;100370.00;;;25.40
24639;BMP180;1641;51.306;12.384;2023-06-14T10:00:13;100373.00;;;22.80
24639;BMP180;1641;51.306;12.384;2023-06-14T10:02:42;100367.00;;;23.10
24639;BMP180;1641;51.306;12.384;2023-06-14T10:05:15;100366.00;;;23.30
24639;BMP180;1641;51.306;12.384;2023-06-14T10:07:53;100379.00;;;22.80
24639;BMP180;1641;51.306;12.384;2023-06-14T10:10:20;100376.00;;;21.90
24639;BMP180;1641;51.306;12.384;2023-06-14T10:12:46;100368.00;;;22.20
24639;BMP180;1641;51.306;12.384;2023-06-14T10:15:19;100369.00;;;22.90
24639;BMP180;1641;51.306;12.384;2023-06-14T10:18:04;100375.00;;;22.30
24639;BMP180;1641;51.306;12.384;2023-06-14T10:20:48;100373.00;;;22.00
24639;BMP180;1641;51.306;12.384;2023-06-14T10:23:21;100377.00;;;21.60
24639;BMP180;1641;51.306;12.384;2023-06-14T10:25:54;100374.00;;;21.80
24639;BMP180;1641;51.306;12.384;2023-06-14T10:28:21;100372.00;;;22.40
24639;BMP180;1641;51.306;12.384;2023-06-14T10:31:09;100381.00;;;21.60
24639;BMP180;1641;51.306;12.384;2023-06-14T10:33:56;100375.00;;;21.60
24639;BMP180;1641;51.306;12.384;2023-06-14T10:39:06;100378.00;;;21.60
24639;BMP180;1641;51.306;12.384;2023-06-14T10:41:35;100380.00;;;22.30
24639;BMP180;1641;51.306;12.384;2023-06-14T10:46:44;100368.00;;;22.40
24639;BMP180;1641;51.306;12.384;2023-06-14T10:49:10;100374.00;;;22.50
24639;BMP180;1641;51.306;12.384;2023-06-14T10:51:41;100364.00;;;22.90
24639;BMP180;1641;51.306;12.384;2023-06-14T10:54:20;100362.00;;;22.70
24639;BMP180;1641;51.306;12.384;2023-06-14T10:56:53;100358.00;;;22.10
24639;BMP180;1641;51.306;12.384;2023-06-14T10:59:20;100372.00;;;21.80
24639;BMP180;1641;51.306;12.384;2023-06-14T11:04:47;100353.00;;;21.30
24639;BMP180;1641;51.306;12.384;2023-06-14T11:07:43;100361.00;;;20.80
24639;BMP180;1641;51.306;12.384;2023-06-14T11:10:35;100361.00;;;21.30
24639;BMP180;1641;51.306;12.384;2023-06-14T11:13:01;100309.00;;;21.70
24639;BMP180;1641;51.306;12.384;2023-06-14T11:15:32;100356.00;;;21.80
24639;BMP180;1641;51.306;12.384;2023-06-14T11:17:57;100358.00;;;21.90
24639;BMP180;1641;51.306;12.384;2023-06-14T11:20:26;100343.00;;;21.80
24639;BMP180;1641;51.306;12.384;2023-06-14T11:22:52;100352.00;;;22.40
24639;BMP180;1641;51.306;12.384;2023-06-14T11:25:18;100349.00;;;21.80
24639;BMP180;1641;51.306;12.384;2023-06-14T11:27:44;100344.00;;;21.60
24639;BMP180;1641;51.306;12.384;2023-06-14T11:30:10;100325.00;;;21.70
24639;BMP180;1641;51.306;12.384;2023-06-14T11:32:39;100343.00;;;22.10
24639;BMP180;1641;51.306;12.384;2023-06-14T11:35:05;100345.00;;;22.20
24639;BMP180;1641;51.306;12.384;2023-06-14T11:37:31;100335.00;;;22.90
24639;BMP180;1641;51.306;12.384;2023-06-14T11:40:03;100335.00;;;22.60
24639;BMP180;1641;51.306;12.384;2023-06-14T11:42:36;100341.00;;;22.30
24639;BMP180;1641;51.306;12.384;2023-06-14T11:45:03;100325.00;;;22.70
24639;BMP180;1641;51.306;12.384;2023-06-14T11:47:40;100335.00;;;22.30
24639;BMP180;1641;51.306;12.384;2023-06-14T11:50:07;100318.00;;;22.60
24639;BMP180;1641;51.306;12.384;2023-06-14T11:52:37;100285.00;;;22.50
24639;BMP180;1641;51.306;12.384;2023-06-14T11:55:03;100324.00;;;22.50
24639;BMP180;1641;51.306;12.384;2023-06-14T11:57:35;100312.00;;;22.40
24639;BMP180;1641;51.306;12.384;2023-06-14T12:00:03;100312.00;;;21.70
24639;BMP180;1641;51.306;12.384;2023-06-14T12:02:32;100332.00;;;22.20
24639;BMP180;1641;51.306;12.384;2023-06-14T12:05:04;100325.00;;;22.10
24639;BMP180;1641;51.306;12.384;2023-06-14T12:07:30;100308.00;;;21.90
24639;BMP180;1641;51.306;12.384;2023-06-14T12:12:22;100320.00;;;22.10
24639;BMP180;1641;51.306;12.384;2023-06-14T12:14:51;100318.00;;;22.20
24639;BMP180;1641;51.306;12.384;2023-06-14T12:17:25;100300.00;;;22.50
24639;BMP180;1641;51.306;12.384;2023-06-14T12:19:55;100308.00;;;22.40
24639;BMP180;1641;51.306;12.384;2023-06-14T12:22:20;100307.00;;;22.10
24639;BMP180;1641;51.306;12.384;2023-06-14T12:24:46;100301.00;;;22.30
24639;BMP180;1641;51.306;12.384;2023-06-14T12:27:15;100291.00;;;22.40
24639;BMP180;1641;51.306;12.384;2023-06-14T12:29:41;100281.00;;;23.50
24639;BMP180;1641;51.306;12.384;2023-06-14T12:32:09;100297.00;;;23.10
24639;BMP180;1641;51.306;12.384;2023-06-14T12:34:34;100297.00;;;24.00
24639;BMP180;1641;51.306;12.384;2023-06-14T12:37:03;100303.00;;;22.90
24639;BMP180;1641;51.306;12.384;2023-06-14T12:39:29;100302.00;;;23.60
24639;BMP180;1641;51.306;12.384;2023-06-14T12:41:56;100302.00;;;23.60
24639;BMP180;1641;51.306;12.384;2023-06-14T12:44:21;100302.00;;;23.40
24639;BMP180;1641;51.306;12.384;2023-06-14T12:46:53;100309.00;;;23.20
24639;BMP180;1641;51.306;12.384;2023-06-14T12:49:25;100306.00;;;22.90
24639;BMP180;1641;51.306;12.384;2023-06-14T12:51:50;100309.00;;;22.70
24639;BMP180;1641;51.306;12.384;2023-06-14T12:54:16;100310.00;;;23.00
24639;BMP180;1641;51.306;12.384;2023-06-14T12:56:42;100308.00;;;22.90
24639;BMP180;1641;51.306;12.384;2023-06-14T12:59:09;100300.00;;;23.20
24639;BMP180;1641;51.306;12.384;2023-06-14T13:01:48;100308.00;;;22.40
24639;BMP180;1641;51.306;12.384;2023-06-14T13:04:18;100307.00;;;22.50
24639;BMP180;1641;51.306;12.384;2023-06-14T13:06:49;100313.00;;;22.40
24639;BMP180;1641;51.306;12.384;2023-06-14T13:09:23;100317.00;;;21.90
24639;BMP180;1641;51.306;12.384;2023-06-14T13:11:49;100319.00;;;22.20
24639;BMP180;1641;51.306;12.384;2023-06-14T13:14:14;100307.00;;;22.10
24639;BMP180;1641;51.306;12.384;2023-06-14T13:16:40;100318.00;;;22.20
24639;BMP180;1641;51.306;12.384;2023-06-14T13:19:05;100313.00;;;22.50
24639;BMP180;1641;51.306;12.384;2023-06-14T13:21:31;100332.00;;;22.20
24639;BMP180;1641;51.306;12.384;2023-06-14T13:23:56;100311.00;;;21.60
24639;BMP180;1641;51.306;12.384;2023-06-14T13:26:21;100319.00;;;21.30
24639;BMP180;1641;51.306;12.384;2023-06-14T13:28:47;100318.00;;;21.80
24639;BMP180;1641;51.306;12.384;2023-06-14T13:31:12;100312.00;;;22.60
24639;BMP180;1641;51.306;12.384;2023-06-14T13:33:37;100315.00;;;22.80
24639;BMP180;1641;51.306;12.384;2023-06-14T13:36:03;100318.00;;;22.70
24639;BMP180;1641;51.306;12.384;2023-06-14T13:38:28;100287.00;;;22.50
24639;BMP180;1641;51.306;12.384;2023-06-14T13:40:53;100319.00;;;22.80
24639;BMP180;1641;51.306;12.384;2023-06-14T13:43:22;100297.00;;;22.70
24639;BMP180;1641;51.306;12.384;2023-06-14T13:45:48;100320.00;;;22.90
24639;BMP180;1641;51.306;12.384;2023-06-14T13:48:13;100318.00;;;22.20
24639;BMP180;1641;51.306;12.384;2023-06-14T13:50:38;100316.00;;;21.90
24639;BMP180;1641;51.306;12.384;2023-06-14T13:53:04;100314.00;;;22.20
24639;BMP180;1641;51.306;12.384;2023-06-14T13:55:32;100306.00;;;22.10
24639;BMP180;1641;51.306;12.384;2023-06-14T13:57:58;100312.00;;;22.20
24639;BMP180;1641;51.306;12.384;2023-06-14T14:00:23;100308.00;;;22.90
24639;BMP180;1641;51.306;12.384;2023-06-14T14:02:48;100304.00;;;23.60
24639;BMP180;1641;51.306;12.384;2023-06-14T14:05:15;100290.00;;;23.20
24639;BMP180;1641;51.306;12.384;2023-06-14T14:07:47;100306.00;;;22.80
24639;BMP180;1641;51.306;12.384;2023-06-14T14:10:15;100310.00;;;23.10
24639;BMP180;1641;51.306;12.384;2023-06-14T14:12:40;100316.00;;;22.60